Time;durP1;ratioP1;P1;durP2;ratioP2;P2;SDS_P1;SDS_P2;PMS_P1;PMS_P2;Temp;Humidity;BMP_temperature;BMP_pressure;BME280_temperature;BME280_humidity;BME280_pressure;Samples;Min_cycle;Max_cycle;Signal;HPM_P1;HPM_P2
2023/08/26 00:01:02;;;;;;;3.20;2.03;;;28.00;56.20;;;;;;5132382;27;45333;-75
2023/08/26 00:03:29;;;;;;;2.25;2.05;;;28.00;56.30;;;;;;5132460;27;45459;-77
2023/08/26 00:05:56;;;;;;;2.15;2.03;;;27.90;56.10;;;;;;5131427;27;45481;-75
2023/08/26 00:08:23;;;;;;;4.03;1.85;;;27.90;56.20;;;;;;5131961;27;45361;-75
2023/08/26 00:10:51;;;;;;;2.58;2.22;;;27.90;56.20;;;;;;5131650;27;45379;-77
2023/08/26 00:13:19;;;;;;;2.22;1.98;;;27.90;56.10;;;;;;5130516;27;45329;-77
2023/08/26 00:15:46;;;;;;;4.68;2.15;;;27.90;56.30;;;;;;5128696;27;45367;-77
2023/08/26 00:18:12;;;;;;;4.18;2.17;;;27.90;56.30;;;;;;5131050;27;45403;-77
2023/08/26 00:20:40;;;;;;;3.88;2.65;;;27.90;56.30;;;;;;5131168;27;45373;-76
2023/08/26 00:23:08;;;;;;;2.47;2.28;;;27.90;56.20;;;;;;5131792;27;45263;-77
2023/08/26 00:25:35;;;;;;;3.75;2.45;;;27.90;56.20;;;;;;5131072;27;45706;-77
2023/08/26 00:28:03;;;;;;;2.40;2.20;;;27.80;56.20;;;;;;5130601;27;46676;-77
2023/08/26 00:30:31;;;;;;;2.28;2.10;;;27.80;56.20;;;;;;5130915;27;45381;-77
2023/08/26 00:32:58;;;;;;;4.30;2.20;;;27.80;56.30;;;;;;5130957;27;45322;-77
2023/08/26 00:35:25;;;;;;;3.35;2.10;;;27.80;56.30;;;;;;5131713;27;45452;-76
2023/08/26 00:37:52;;;;;;;2.80;2.60;;;27.80;56.30;;;;;;5130549;27;45547;-79
2023/08/26 00:40:18;;;;;;;2.33;1.83;;;27.70;56.30;;;;;;5131160;27;45343;-77
2023/08/26 00:42:45;;;;;;;1.90;1.80;;;27.70;56.30;;;;;;5130661;27;45342;-78
2023/08/26 00:45:13;;;;;;;4.88;2.10;;;27.70;56.20;;;;;;5131295;27;45415;-77
2023/08/26 00:47:41;;;;;;;2.08;1.85;;;27.70;56.20;;;;;;5131024;27;46404;-77
2023/08/26 00:50:08;;;;;;;3.38;2.00;;;27.70;56.30;;;;;;5130884;27;45446;-77
2023/08/26 00:52:35;;;;;;;2.63;2.10;;;27.70;56.20;;;;;;5130680;27;45268;-77
2023/08/26 00:55:02;;;;;;;2.33;2.13;;;27.70;56.30;;;;;;5131256;27;45464;-77
2023/08/26 00:57:29;;;;;;;2.55;2.20;;;27.70;56.30;;;;;;5130186;27;45649;-77
2023/08/26 00:59:56;;;;;;;2.65;2.10;;;27.60;56.30;;;;;;5129106;27;45428;-78
2023/08/26 01:02:23;;;;;;;3.55;2.00;;;27.70;56.40;;;;;;5131655;27;45276;-77
2023/08/26 01:04:51;;;;;;;2.42;2.20;;;27.60;56.40;;;;;;5131009;27;45338;-77
2023/08/26 01:07:18;;;;;;;2.75;2.05;;;27.60;56.40;;;;;;5132256;27;46666;-77
2023/08/26 01:09:45;;;;;;;3.42;2.30;;;27.60;56.40;;;;;;5130906;27;45473;-77
2023/08/26 01:12:16;;;;;;;2.42;1.77;;;27.60;56.40;;;;;;5131528;27;45349;-77
2023/08/26 01:14:46;;;;;;;2.20;2.00;;;27.60;56.50;;;;;;5132426;27;45257;-76
2023/08/26 01:17:13;;;;;;;3.20;2.20;;;27.60;56.40;;;;;;5130361;27;46406;-76
2023/08/26 01:19:41;;;;;;;2.30;2.10;;;27.60;56.40;;;;;;5130306;27;45318;-75
2023/08/26 01:22:09;;;;;;;2.55;2.10;;;27.60;56.50;;;;;;5130583;27;45321;-76
2023/08/26 01:24:39;;;;;;;2.33;2.13;;;27.50;56.40;;;;;;5130906;27;45408;-76
2023/08/26 01:27:06;;;;;;;2.00;1.90;;;27.50;56.40;;;;;;5130883;27;45446;-76
2023/08/26 01:29:35;;;;;;;1.75;1.65;;;27.50;56.40;;;;;;5131367;27;45306;-76
2023/08/26 01:32:07;;;;;;;4.07;2.00;;;27.50;56.50;;;;;;5131699;27;45232;-76
2023/08/26 01:34:34;;;;;;;2.28;1.90;;;27.50;56.40;;;;;;5131029;27;45384;-75
2023/08/26 01:37:00;;;;;;;3.05;2.13;;;27.50;56.50;;;;;;5130224;27;45382;-76
2023/08/26 01:39:27;;;;;;;2.10;2.00;;;27.50;56.40;;;;;;5130085;27;45305;-76
2023/08/26 01:41:55;;;;;;;2.28;1.75;;;27.50;56.40;;;;;;5129972;27;45349;-75
2023/08/26 01:44:22;;;;;;;1.92;1.83;;;27.50;57.00;;;;;;5130463;27;45309;-76
2023/08/26 01:46:49;;;;;;;2.10;2.00;;;27.50;56.40;;;;;;5127233;27;45717;-76
2023/08/26 01:49:16;;;;;;;1.95;1.85;;;27.50;56.50;;;;;;5133491;27;45304;-76
2023/08/26 01:51:43;;;;;;;3.35;2.25;;;27.40;56.50;;;;;;5128866;27;45387;-76
2023/08/26 01:54:10;;;;;;;4.20;1.70;;;27.40;56.50;;;;;;5130083;27;45403;-76
2023/08/26 01:56:37;;;;;;;2.20;2.00;;;27.40;56.50;;;;;;5129347;27;46400;-76
2023/08/26 01:59:06;;;;;;;2.03;1.83;;;27.40;56.50;;;;;;5129600;27;45260;-76
2023/08/26 02:01:33;;;;;;;2.42;2.10;;;27.40;56.50;;;;;;5129569;27;45305;-76
2023/08/26 02:04:00;;;;;;;2.47;2.28;;;27.40;56.50;;;;;;5130287;27;45499;-76
2023/08/26 02:06:27;;;;;;;2.28;2.00;;;27.40;56.60;;;;;;5129126;27;46581;-76
2023/08/26 02:08:54;;;;;;;3.55;1.92;;;27.40;56.50;;;;;;5130520;27;45260;-76
2023/08/26 02:11:22;;;;;;;3.45;1.77;;;27.40;56.50;;;;;;5130883;27;45331;-76
2023/08/26 02:13:48;;;;;;;2.92;2.10;;;27.30;56.50;;;;;;5130582;27;45419;-76
2023/08/26 02:16:17;;;;;;;4.57;1.80;;;27.40;56.50;;;;;;5129848;27;46365;-76
2023/08/26 02:18:44;;;;;;;2.80;1.92;;;27.30;56.50;;;;;;5129273;27;45254;-76
2023/08/26 02:21:11;;;;;;;3.75;1.92;;;27.30;56.50;;;;;;5129554;27;45295;-76
2023/08/26 02:23:38;;;;;;;3.22;2.00;;;27.30;56.50;;;;;;5129180;27;45231;-76
2023/08/26 02:26:05;;;;;;;2.83;2.00;;;27.30;56.50;;;;;;5128817;27;45570;-76
2023/08/26 02:28:31;;;;;;;2.47;2.05;;;27.30;56.60;;;;;;5130925;27;45176;-75
2023/08/26 02:30:58;;;;;;;2.80;2.00;;;27.30;56.50;;;;;;5129224;27;45244;-76
2023/08/26 02:33:27;;;;;;;1.83;1.73;;;27.30;56.50;;;;;;5129137;27;45395;-75
2023/08/26 02:35:53;;;;;;;3.10;2.13;;;27.30;56.50;;;;;;5127889;27;46361;-76
2023/08/26 02:38:20;;;;;;;2.88;1.98;;;27.30;56.60;;;;;;5125807;27;45365;-76
2023/08/26 02:40:52;;;;;;;1.77;1.52;;;27.20;56.50;;;;;;5129014;27;45250;-76
2023/08/26 02:43:19;;;;;;;1.80;1.67;;;27.20;56.50;;;;;;5129212;27;45339;-76
2023/08/26 02:45:46;;;;;;;3.10;1.90;;;27.20;56.60;;;;;;5128279;27;46736;-76
2023/08/26 02:48:13;;;;;;;2.63;1.88;;;27.20;56.50;;;;;;5128606;27;45274;-76
2023/08/26 02:50:41;;;;;;;2.08;1.90;;;27.20;56.60;;;;;;5128650;27;45267;-75
2023/08/26 02:53:08;;;;;;;3.10;2.00;;;27.20;56.60;;;;;;5128671;27;45367;-75
2023/08/26 02:55:35;;;;;;;1.75;1.65;;;27.20;56.60;;;;;;5128037;27;45414;-75
2023/08/26 02:58:02;;;;;;;1.90;1.80;;;27.20;56.50;;;;;;5130272;27;45321;-76
2023/08/26 03:00:29;;;;;;;1.80;1.70;;;27.20;56.50;;;;;;5129715;27;45163;-76
2023/08/26 03:02:56;;;;;;;3.08;1.77;;;27.20;56.60;;;;;;5131462;27;45391;-76
2023/08/26 03:05:23;;;;;;;1.92;1.80;;;27.10;56.40;;;;;;5131085;27;45436;-76
2023/08/26 03:07:51;;;;;;;2.15;1.73;;;27.10;56.50;;;;;;5130883;27;45339;-76
2023/08/26 03:10:19;;;;;;;3.05;1.70;;;27.10;56.50;;;;;;5133117;27;45340;-76
2023/08/26 03:12:47;;;;;;;2.00;1.90;;;27.10;56.50;;;;;;5134420;27;45610;-76
2023/08/26 03:15:15;;;;;;;2.20;2.03;;;27.10;56.60;;;;;;5133525;27;46902;-76
2023/08/26 03:17:42;;;;;;;2.10;1.95;;;27.00;56.50;;;;;;5130275;27;45357;-75
2023/08/26 03:20:10;;;;;;;2.22;1.60;;;27.10;56.60;;;;;;5131902;27;45209;-74
2023/08/26 03:22:36;;;;;;;2.25;1.60;;;27.00;56.60;;;;;;5127399;27;45533;-74
2023/08/26 03:25:05;;;;;;;1.95;1.73;;;27.00;56.60;;;;;;5127636;27;45304;-76
2023/08/26 03:27:33;;;;;;;2.90;1.90;;;27.00;56.60;;;;;;5127865;27;45306;-76
2023/08/26 03:30:00;;;;;;;2.08;1.88;;;27.00;56.60;;;;;;5128235;27;45202;-76
2023/08/26 03:32:27;;;;;;;2.38;1.80;;;27.00;56.60;;;;;;5128067;27;45259;-76
2023/08/26 03:34:53;;;;;;;2.55;1.70;;;27.00;56.60;;;;;;5127980;27;45678;-76
2023/08/26 03:37:20;;;;;;;2.58;2.00;;;27.00;56.60;;;;;;5127647;27;45380;-76
2023/08/26 03:39:47;;;;;;;1.42;1.30;;;26.90;56.50;;;;;;5128152;27;45331;-76
2023/08/26 03:42:16;;;;;;;1.83;1.50;;;27.00;56.70;;;;;;5128232;27;45248;-76
2023/08/26 03:44:43;;;;;;;1.85;1.75;;;26.90;56.60;;;;;;5127890;27;46646;-75
2023/08/26 03:47:10;;;;;;;1.50;1.40;;;26.90;56.70;;;;;;5127663;27;45346;-76
2023/08/26 03:49:37;;;;;;;2.15;1.80;;;26.90;56.60;;;;;;5127643;27;45408;-75
2023/08/26 03:52:04;;;;;;;1.70;1.60;;;26.90;56.60;;;;;;5128549;27;45615;-75
2023/08/26 03:54:31;;;;;;;1.75;1.65;;;26.90;56.70;;;;;;5127599;27;45296;-75
2023/08/26 03:56:58;;;;;;;2.13;1.90;;;26.90;57.20;;;;;;5127335;27;45381;-76
2023/08/26 03:59:26;;;;;;;1.83;1.70;;;26.90;56.70;;;;;;5127727;27;45408;-76
2023/08/26 04:01:53;;;;;;;2.65;1.67;;;26.90;56.70;;;;;;5127928;27;45372;-76
2023/08/26 04:04:20;;;;;;;1.70;1.60;;;26.90;56.70;;;;;;5127020;27;45477;-76
2023/08/26 04:06:46;;;;;;;2.03;1.70;;;26.90;56.60;;;;;;5126946;27;45963;-76
2023/08/26 04:09:13;;;;;;;1.88;1.77;;;26.80;56.60;;;;;;5126538;27;45352;-76
2023/08/26 04:11:42;;;;;;;2.03;1.83;;;26.80;56.60;;;;;;5127177;27;45303;-76
2023/08/26 04:14:09;;;;;;;1.90;1.70;;;26.80;56.60;;;;;;5126610;27;45601;-76
2023/08/26 04:16:37;;;;;;;1.95;1.70;;;26.80;56.70;;;;;;5126843;27;45307;-75
2023/08/26 04:19:04;;;;;;;2.33;1.70;;;26.80;56.60;;;;;;5126824;27;45435;-76
2023/08/26 04:21:32;;;;;;;2.45;1.75;;;26.80;56.70;;;;;;5126779;27;45596;-75
2023/08/26 04:23:58;;;;;;;3.00;1.73;;;26.80;56.70;;;;;;5126796;27;46605;-75
2023/08/26 04:26:25;;;;;;;1.77;1.63;;;26.70;56.60;;;;;;5126353;27;45333;-76
2023/08/26 04:28:52;;;;;;;1.90;1.70;;;26.80;56.60;;;;;;5123727;27;45165;-76
2023/08/26 04:31:19;;;;;;;1.52;1.42;;;26.80;56.60;;;;;;5126569;27;45521;-76
2023/08/26 04:33:47;;;;;;;1.60;1.50;;;26.80;56.60;;;;;;5127342;27;46615;-76
2023/08/26 04:36:14;;;;;;;1.70;1.60;;;26.80;56.50;;;;;;5129857;27;45325;-76
2023/08/26 04:38:41;;;;;;;2.67;1.88;;;26.80;56.50;;;;;;5129981;27;45349;-75
2023/08/26 04:41:09;;;;;;;1.77;1.67;;;26.70;56.50;;;;;;5130614;27;45375;-76
2023/08/26 04:43:36;;;;;;;1.70;1.60;;;26.70;56.50;;;;;;5130195;27;45461;-75
2023/08/26 04:46:03;;;;;;;1.92;1.77;;;26.70;56.20;;;;;;5129682;27;45451;-76
2023/08/26 04:48:30;;;;;;;1.70;1.60;;;26.80;56.30;;;;;;5129965;27;45319;-75
2023/08/26 04:50:58;;;;;;;1.85;1.55;;;26.70;56.10;;;;;;5130347;27;45255;-75
2023/08/26 04:53:25;;;;;;;1.75;1.65;;;26.80;56.10;;;;;;5129676;27;45881;-76
2023/08/26 04:55:52;;;;;;;1.60;1.50;;;26.80;56.10;;;;;;5128938;27;45343;-76
2023/08/26 04:58:19;;;;;;;2.15;1.70;;;26.70;56.00;;;;;;5129880;27;45335;-76
2023/08/26 05:00:46;;;;;;;1.80;1.70;;;26.70;56.00;;;;;;5129861;27;45165;-76
2023/08/26 05:03:13;;;;;;;1.92;1.70;;;26.70;56.00;;;;;;5129488;27;46422;-76
2023/08/26 05:05:41;;;;;;;1.77;1.67;;;26.80;56.00;;;;;;5129598;27;45448;-76
2023/08/26 05:08:09;;;;;;;1.73;1.63;;;26.70;56.60;;;;;;5129822;27;45232;-75
2023/08/26 05:10:36;;;;;;;2.45;1.80;;;26.70;55.90;;;;;;5130006;27;45291;-75
2023/08/26 05:13:04;;;;;;;1.58;1.48;;;26.70;55.90;;;;;;5129431;27;47433;-76
2023/08/26 05:15:31;;;;;;;2.70;1.70;;;26.70;55.90;;;;;;5129476;27;45321;-76
2023/08/26 05:17:58;;;;;;;1.80;1.70;;;26.70;56.00;;;;;;5129740;27;45301;-75
2023/08/26 05:20:25;;;;;;;2.50;1.60;;;26.70;56.50;;;;;;5129884;27;45298;-76
2023/08/26 05:22:51;;;;;;;2.10;1.60;;;26.70;55.90;;;;;;5129299;27;46398;-76
2023/08/26 05:25:20;;;;;;;2.75;1.98;;;26.70;56.00;;;;;;5129365;27;45412;-75
2023/08/26 05:27:46;;;;;;;1.75;1.65;;;26.70;55.90;;;;;;5129430;27;45311;-76
2023/08/26 05:30:14;;;;;;;2.83;1.83;;;26.70;55.90;;;;;;5129947;27;45377;-76
2023/08/26 05:32:40;;;;;;;2.60;1.60;;;26.70;55.90;;;;;;5129268;27;47343;-75
2023/08/26 05:35:08;;;;;;;1.77;1.67;;;26.70;55.90;;;;;;5129272;27;45267;-76
2023/08/26 05:37:35;;;;;;;1.70;1.60;;;26.70;55.80;;;;;;5129431;27;45362;-75
2023/08/26 05:40:02;;;;;;;1.77;1.67;;;26.70;55.80;;;;;;5129151;27;45357;-76
2023/08/26 05:42:30;;;;;;;1.63;1.40;;;26.70;55.90;;;;;;5128823;27;45452;-75
2023/08/26 05:44:57;;;;;;;3.72;2.17;;;26.70;55.90;;;;;;5129234;27;45180;-75
2023/08/26 05:47:24;;;;;;;2.42;1.70;;;26.60;55.80;;;;;;5129876;27;45388;-75
2023/08/26 05:49:51;;;;;;;2.22;1.58;;;26.60;55.80;;;;;;5130044;27;45289;-76
2023/08/26 05:52:18;;;;;;;2.53;1.88;;;26.70;55.90;;;;;;5130035;27;46701;-76
2023/08/26 05:54:45;;;;;;;1.60;1.50;;;26.60;56.40;;;;;;5129178;27;45365;-75
2023/08/26 05:57:12;;;;;;;1.95;1.85;;;26.60;55.80;;;;;;5129171;27;45167;-76
2023/08/26 05:59:40;;;;;;;1.88;1.70;;;26.70;55.90;;;;;;5129324;27;45179;-76
2023/08/26 06:02:07;;;;;;;2.40;1.40;;;26.70;55.90;;;;;;5126375;27;45421;-75
2023/08/26 06:04:34;;;;;;;1.70;1.60;;;26.60;55.80;;;;;;5126400;27;45315;-75
2023/08/26 06:07:01;;;;;;;1.83;1.60;;;26.60;55.70;;;;;;5126266;27;45372;-75
2023/08/26 06:09:28;;;;;;;1.88;1.60;;;26.60;55.80;;;;;;5129091;27;45309;-75
2023/08/26 06:11:55;;;;;;;1.63;1.52;;;26.60;55.80;;;;;;5128878;27;46372;-75
2023/08/26 06:14:22;;;;;;;1.50;1.40;;;26.60;55.80;;;;;;5128811;27;45421;-75
2023/08/26 06:16:50;;;;;;;1.70;1.60;;;26.60;55.70;;;;;;5128694;27;45293;-76
2023/08/26 06:19:17;;;;;;;1.48;1.33;;;26.60;55.80;;;;;;5128873;27;45352;-75
2023/08/26 06:21:44;;;;;;;1.75;1.45;;;26.60;55.70;;;;;;5128540;27;45315;-76
2023/08/26 06:24:11;;;;;;;1.48;1.38;;;26.60;55.80;;;;;;5128309;27;45405;-73
2023/08/26 06:26:37;;;;;;;2.33;1.60;;;26.60;55.80;;;;;;5128358;27;45457;-76
2023/08/26 06:29:04;;;;;;;1.80;1.60;;;26.60;55.80;;;;;;5128776;27;45421;-75
2023/08/26 06:31:31;;;;;;;2.00;1.80;;;26.60;55.80;;;;;;5128231;27;45512;-75
2023/08/26 06:33:59;;;;;;;1.85;1.65;;;26.60;55.80;;;;;;5128389;27;45249;-75
2023/08/26 06:36:26;;;;;;;1.60;1.50;;;26.60;55.80;;;;;;5128329;27;45324;-75
2023/08/26 06:38:53;;;;;;;2.67;1.60;;;26.60;55.80;;;;;;5128651;27;45337;-76
2023/08/26 06:41:20;;;;;;;3.22;1.40;;;26.60;55.90;;;;;;5128198;27;47370;-75
2023/08/26 06:43:47;;;;;;;1.90;1.60;;;26.50;55.90;;;;;;5127808;27;45212;-75
2023/08/26 06:46:14;;;;;;;2.45;1.60;;;26.60;56.00;;;;;;5128362;27;45298;-76
2023/08/26 06:48:41;;;;;;;1.73;1.60;;;26.50;55.90;;;;;;5128532;27;45442;-75
2023/08/26 06:51:10;;;;;;;1.95;1.60;;;26.50;56.60;;;;;;5128198;27;46497;-75
2023/08/26 06:53:36;;;;;;;2.58;1.88;;;26.50;55.90;;;;;;5128356;27;45244;-75
2023/08/26 06:56:03;;;;;;;1.70;1.42;;;26.50;55.90;;;;;;5127490;27;45332;-75
2023/08/26 06:58:30;;;;;;;3.53;1.88;;;26.50;56.00;;;;;;5128640;27;45298;-75
2023/08/26 07:00:58;;;;;;;4.82;1.88;;;26.50;55.80;;;;;;5125765;27;46711;-75
2023/08/26 07:03:25;;;;;;;1.90;1.40;;;26.50;56.00;;;;;;5130006;27;45313;-76
2023/08/26 07:05:52;;;;;;;1.50;1.40;;;26.50;56.00;;;;;;5129670;27;45321;-74
2023/08/26 07:08:20;;;;;;;1.73;1.40;;;26.50;55.90;;;;;;5128193;27;45260;-74
2023/08/26 07:10:47;;;;;;;1.58;1.48;;;26.50;55.90;;;;;;5128682;27;45475;-74
2023/08/26 07:13:14;;;;;;;1.75;1.65;;;26.50;55.90;;;;;;5127683;27;45373;-74
2023/08/26 07:15:41;;;;;;;2.83;1.50;;;26.50;55.80;;;;;;5128309;27;45129;-74
2023/08/26 07:18:08;;;;;;;1.67;1.58;;;26.50;55.90;;;;;;5128210;27;45352;-75
2023/08/26 07:20:35;;;;;;;1.70;1.60;;;26.50;55.90;;;;;;5127964;27;45467;-74
2023/08/26 07:23:01;;;;;;;1.80;1.70;;;26.50;55.90;;;;;;5125264;27;45364;-74
2023/08/26 07:25:30;;;;;;;2.15;1.42;;;26.50;55.90;;;;;;5127953;27;45391;-74
2023/08/26 07:27:56;;;;;;;1.58;1.35;;;26.50;55.80;;;;;;5128363;27;45256;-74
2023/08/26 07:30:26;;;;;;;5.28;1.60;;;26.50;55.80;;;;;;5127889;27;46370;-74
2023/08/26 07:33:02;;;;;;;1.58;1.48;;;26.50;55.90;;;;;;5127957;27;45432;-74
2023/08/26 07:35:29;;;;;;;1.67;1.58;;;26.50;55.80;;;;;;5128050;27;45290;-74
2023/08/26 07:37:56;;;;;;;3.42;1.65;;;26.50;55.90;;;;;;5127832;27;45464;-74
2023/08/26 07:40:23;;;;;;;1.90;1.80;;;26.40;55.90;;;;;;5127392;27;46548;-74
2023/08/26 07:42:51;;;;;;;1.88;1.60;;;26.40;55.80;;;;;;5126967;27;45311;-75
2023/08/26 07:45:19;;;;;;;1.98;1.63;;;26.40;55.90;;;;;;5127336;27;45519;-74
2023/08/26 07:47:46;;;;;;;1.77;1.58;;;26.40;55.90;;;;;;5127638;27;45516;-74
2023/08/26 07:50:12;;;;;;;3.50;1.63;;;26.40;55.80;;;;;;5127050;27;46484;-74
2023/08/26 07:52:39;;;;;;;1.52;1.42;;;26.40;55.80;;;;;;5127415;27;45151;-75
2023/08/26 07:55:07;;;;;;;1.58;1.38;;;26.40;55.80;;;;;;5127556;27;45326;-73
2023/08/26 07:57:33;;;;;;;2.75;1.52;;;26.40;55.80;;;;;;5127122;27;45417;-74
2023/08/26 08:00:03;;;;;;;2.13;1.65;;;26.40;55.80;;;;;;5126333;27;46761;-74
2023/08/26 08:02:30;;;;;;;1.67;1.40;;;26.40;55.90;;;;;;5126979;27;45191;-74
2023/08/26 08:04:57;;;;;;;2.60;1.38;;;26.40;55.90;;;;;;5127216;27;45487;-74
2023/08/26 08:07:23;;;;;;;1.50;1.40;;;26.40;55.90;;;;;;5127927;27;45453;-74
2023/08/26 08:09:52;;;;;;;1.85;1.60;;;26.40;55.90;;;;;;5130922;27;46658;-74
2023/08/26 08:12:19;;;;;;;1.75;1.58;;;26.40;55.90;;;;;;5131122;27;45402;-74
2023/08/26 08:14:46;;;;;;;1.83;1.52;;;26.40;55.90;;;;;;5131594;27;45314;-74
2023/08/26 08:17:14;;;;;;;1.38;1.27;;;26.40;55.80;;;;;;5131547;27;45342;-74
2023/08/26 08:19:45;;;;;;;2.17;1.52;;;26.40;55.80;;;;;;5130369;27;45579;-74
2023/08/26 08:22:12;;;;;;;1.67;1.58;;;26.40;55.90;;;;;;5130555;27;45621;-74
2023/08/26 08:24:39;;;;;;;2.13;1.50;;;26.40;55.80;;;;;;5130731;27;45319;-74
2023/08/26 08:27:06;;;;;;;1.52;1.42;;;26.40;55.80;;;;;;5125020;27;45463;-74
2023/08/26 08:29:32;;;;;;;1.70;1.60;;;26.40;55.90;;;;;;5117753;27;47366;-73
2023/08/26 08:31:59;;;;;;;8.80;1.73;;;26.40;55.90;;;;;;5120701;27;45232;-74
2023/08/26 08:34:28;;;;;;;6.72;1.73;;;26.40;56.00;;;;;;5123713;27;45271;-74
2023/08/26 08:36:54;;;;;;;4.43;1.60;;;26.40;56.10;;;;;;5112634;27;45296;-73
2023/08/26 08:39:21;;;;;;;4.82;1.90;;;26.40;56.00;;;;;;5118922;27;45392;-74
2023/08/26 08:41:49;;;;;;;4.63;1.80;;;26.30;55.80;;;;;;5129228;27;45387;-74
2023/08/26 08:44:16;;;;;;;4.53;2.08;;;26.30;55.50;;;;;;5121346;27;45316;-73
2023/08/26 08:46:42;;;;;;;2.97;2.00;;;26.30;55.40;;;;;;5124983;27;45415;-72
2023/08/26 08:49:09;;;;;;;3.22;1.60;;;26.30;55.50;;;;;;5123479;27;45602;-74
2023/08/26 08:51:37;;;;;;;3.75;1.77;;;26.30;55.70;;;;;;5109400;27;45441;-74
2023/08/26 08:54:05;;;;;;;5.78;1.90;;;26.20;55.50;;;;;;5111075;27;45317;-74
2023/08/26 08:56:32;;;;;;;4.13;1.80;;;26.30;55.50;;;;;;5117131;27;45540;-74
2023/08/26 08:58:59;;;;;;;2.47;1.60;;;26.30;55.30;;;;;;5119931;27;46608;-74
2023/08/26 09:01:26;;;;;;;5.47;1.60;;;26.30;55.20;;;;;;5129586;27;45352;-74
2023/08/26 09:03:52;;;;;;;4.57;1.70;;;26.30;55.30;;;;;;5118285;27;45278;-73
2023/08/26 09:06:19;;;;;;;2.90;1.90;;;26.30;54.70;;;;;;5115226;27;45469;-73
2023/08/26 09:08:48;;;;;;;1.60;1.50;;;26.30;54.70;;;;;;5126815;27;46654;-73
2023/08/26 09:11:16;;;;;;;3.45;1.80;;;26.30;54.90;;;;;;5120778;27;45331;-74
2023/08/26 09:13:44;;;;;;;4.20;1.98;;;26.30;54.90;;;;;;5122455;27;45737;-76
2023/08/26 09:16:11;;;;;;;4.22;1.70;;;26.30;55.10;;;;;;5110282;27;45207;-72
2023/08/26 09:18:39;;;;;;;3.17;1.33;;;26.30;55.00;;;;;;5116750;27;46387;-76
2023/08/26 09:21:08;;;;;;;2.45;1.70;;;26.30;54.90;;;;;;5123253;27;45406;-75
2023/08/26 09:23:41;;;;;;;1.50;1.40;;;26.30;55.00;;;;;;5118205;27;45312;-76
2023/08/26 09:26:09;;;;;;;4.25;1.45;;;26.20;55.20;;;;;;5122894;27;45394;-76
2023/08/26 09:28:36;;;;;;;2.78;1.30;;;26.30;55.30;;;;;;5115228;27;46269;-75
2023/08/26 09:31:05;;;;;;;3.17;1.70;;;26.30;55.40;;;;;;5115074;27;45615;-75
2023/08/26 09:33:31;;;;;;;3.45;1.80;;;26.20;55.50;;;;;;5128581;27;45411;-76
2023/08/26 09:35:59;;;;;;;3.70;1.60;;;26.20;55.60;;;;;;5115135;27;45533;-77
2023/08/26 09:38:26;;;;;;;4.68;1.83;;;26.20;55.50;;;;;;5116649;27;45260;-76
2023/08/26 09:40:56;;;;;;;2.70;1.73;;;26.20;55.80;;;;;;5117161;27;45306;-75
2023/08/26 09:43:24;;;;;;;1.50;1.40;;;26.20;55.80;;;;;;5117035;27;45449;-75
2023/08/26 09:45:54;;;;;;;4.80;1.83;;;26.20;55.70;;;;;;5114004;27;45467;-75
2023/08/26 09:48:22;;;;;;;3.58;1.85;;;26.20;55.80;;;;;;5128875;27;46737;-74
2023/08/26 09:50:48;;;;;;;3.40;1.92;;;26.20;55.80;;;;;;5129123;27;45308;-75
2023/08/26 09:53:27;;;;;;;3.17;1.30;;;26.10;55.70;;;;;;5128779;27;45404;-75
2023/08/26 09:55:54;;;;;;;2.92;1.50;;;26.10;55.70;;;;;;5128682;27;45416;-75
2023/08/26 09:58:21;;;;;;;6.88;1.85;;;26.10;55.90;;;;;;5128770;27;46671;-75
2023/08/26 10:00:50;;;;;;;3.03;1.55;;;26.10;56.00;;;;;;5128233;27;45346;-75
2023/08/26 10:03:17;;;;;;;4.20;1.88;;;26.10;56.00;;;;;;5129257;27;45366;-75
2023/08/26 10:05:44;;;;;;;4.55;1.50;;;26.10;56.10;;;;;;5128702;27;45304;-75
2023/08/26 10:08:11;;;;;;;2.47;1.55;;;26.10;56.20;;;;;;5126730;27;47293;-75
2023/08/26 10:10:41;;;;;;;2.05;1.83;;;26.10;56.20;;;;;;5112190;27;45271;-75
2023/08/26 10:13:08;;;;;;;2.58;1.35;;;26.00;56.40;;;;;;5119057;27;45387;-75
2023/08/26 10:15:35;;;;;;;2.13;1.50;;;26.00;56.30;;;;;;5126280;27;45375;-75
2023/08/26 10:18:08;;;;;;;4.43;2.10;;;26.00;56.10;;;;;;5128482;27;45345;-75
2023/08/26 10:20:35;;;;;;;3.28;1.42;;;25.90;56.00;;;;;;5128301;27;45313;-75
2023/08/26 10:23:02;;;;;;;4.30;2.28;;;25.90;56.00;;;;;;5129011;27;45358;-75
2023/08/26 10:25:29;;;;;;;2.40;1.58;;;25.90;56.00;;;;;;5128940;27;45493;-75
2023/08/26 10:27:56;;;;;;;3.67;1.80;;;25.90;55.90;;;;;;5127578;27;46654;-75
2023/08/26 10:30:23;;;;;;;6.03;2.13;;;25.80;56.00;;;;;;5128409;27;45379;-75
2023/08/26 10:32:53;;;;;;;2.55;1.65;;;25.80;56.00;;;;;;5127856;27;45374;-75
2023/08/26 10:35:21;;;;;;;3.35;1.80;;;25.80;56.20;;;;;;5122326;27;45540;-75
2023/08/26 10:37:48;;;;;;;3.40;1.67;;;25.80;56.20;;;;;;5118053;27;46724;-74
2023/08/26 10:40:17;;;;;;;2.45;1.73;;;25.80;56.30;;;;;;5124147;27;45353;-75
2023/08/26 10:43:04;;;;;;;5.90;1.70;;;25.80;57.10;;;;;;5128374;27;45432;-75
2023/08/26 10:45:30;;;;;;;3.78;1.90;;;25.80;56.50;;;;;;5111273;27;45867;-75
2023/08/26 10:47:58;;;;;;;4.03;1.90;;;25.90;56.70;;;;;;5120871;27;46311;-74
2023/08/26 10:50:26;;;;;;;1.60;1.50;;;25.90;56.40;;;;;;5118458;27;45378;-74
2023/08/26 10:52:56;;;;;;;2.60;1.80;;;25.90;56.50;;;;;;5122644;27;45257;-74
2023/08/26 10:55:23;;;;;;;3.53;1.80;;;25.90;56.50;;;;;;5125533;27;45615;-75
2023/08/26 10:58:18;;;;;;;5.47;1.67;;;25.90;56.40;;;;;;5110395;27;45499;-75
2023/08/26 11:00:51;;;;;;;3.10;1.40;;;25.90;56.30;;;;;;5072019;27;45376;-75
2023/08/26 11:03:20;;;;;;;2.65;1.73;;;25.80;56.30;;;;;;5121284;27;45380;-75
2023/08/26 11:06:00;;;;;;;2.85;1.60;;;25.80;56.10;;;;;;5126654;27;45501;-75
2023/08/26 11:08:27;;;;;;;3.22;1.95;;;25.80;56.30;;;;;;5111344;27;45748;-75
2023/08/26 11:10:54;;;;;;;3.40;1.33;;;25.80;56.30;;;;;;5125549;27;45404;-74
2023/08/26 11:13:22;;;;;;;2.50;2.00;;;25.80;56.20;;;;;;5126681;27;45549;-74
2023/08/26 11:15:50;;;;;;;2.75;1.40;;;25.80;56.40;;;;;;5127929;27;45597;-75
2023/08/26 11:18:16;;;;;;;2.13;1.30;;;25.80;56.40;;;;;;5127068;27;46426;-73
2023/08/26 11:20:44;;;;;;;4.50;1.50;;;25.80;56.40;;;;;;5117069;27;45555;-76
2023/08/26 11:23:12;;;;;;;3.95;1.80;;;25.70;56.20;;;;;;5115307;27;45500;-72
2023/08/26 11:25:39;;;;;;;8.05;1.98;;;25.70;56.40;;;;;;5125664;27;45387;-77
2023/08/26 11:28:07;;;;;;;3.45;1.63;;;25.70;56.70;;;;;;5125438;27;46707;-77
2023/08/26 11:30:36;;;;;;;8.20;1.65;;;25.70;56.80;;;;;;5115262;27;45534;-77
2023/08/26 11:33:10;;;;;;;2.03;1.42;;;25.70;56.90;;;;;;5119580;27;45726;-77
2023/08/26 11:35:38;;;;;;;3.67;1.33;;;25.70;57.50;;;;;;5127792;27;45543;-75
2023/08/26 11:38:06;;;;;;;2.42;1.45;;;25.70;56.90;;;;;;5117414;27;47005;-75
2023/08/26 11:40:34;;;;;;;4.78;1.63;;;25.70;57.10;;;;;;5115989;27;45181;-75
2023/08/26 11:43:06;;;;;;;1.58;1.48;;;25.70;57.00;;;;;;5126211;27;45492;-75
2023/08/26 11:45:33;;;;;;;2.63;1.60;;;25.70;57.00;;;;;;5126792;27;45528;-74
2023/08/26 11:48:00;;;;;;;2.35;1.50;;;25.70;57.20;;;;;;5127876;27;45524;-76
2023/08/26 11:50:27;;;;;;;4.07;1.80;;;25.70;57.40;;;;;;5127277;27;45542;-76
2023/08/26 11:52:55;;;;;;;5.50;1.88;;;25.70;57.20;;;;;;5125518;27;45292;-75
2023/08/26 11:55:22;;;;;;;2.83;1.75;;;25.70;57.40;;;;;;5129359;27;45322;-76
2023/08/26 11:57:54;;;;;;;2.05;1.50;;;25.60;57.50;;;;;;5119512;27;45656;-75
2023/08/26 12:00:21;;;;;;;3.00;1.55;;;25.60;57.30;;;;;;5131272;27;45310;-75
2023/08/26 12:02:48;;;;;;;2.88;1.80;;;25.60;57.10;;;;;;5130942;27;45231;-76
2023/08/26 12:05:16;;;;;;;2.33;1.50;;;25.60;56.90;;;;;;5128430;27;45500;-76
2023/08/26 12:07:44;;;;;;;3.30;1.42;;;25.60;56.80;;;;;;5130601;27;45434;-76
2023/08/26 12:10:11;;;;;;;2.50;1.55;;;25.60;56.90;;;;;;5128220;27;45214;-76
2023/08/26 12:12:38;;;;;;;2.47;1.60;;;25.50;57.20;;;;;;5131397;27;45253;-77
2023/08/26 12:15:07;;;;;;;3.85;1.60;;;25.50;57.50;;;;;;5128507;27;45301;-77
2023/08/26 12:17:43;;;;;;;2.60;1.55;;;25.50;57.50;;;;;;5132483;27;45566;-77
2023/08/26 12:20:22;;;;;;;2.60;1.73;;;25.50;57.20;;;;;;5131613;27;45237;-76
2023/08/26 12:22:49;;;;;;;2.30;1.48;;;25.50;57.30;;;;;;5130358;27;45366;-77
2023/08/26 12:25:19;;;;;;;2.20;1.42;;;25.50;57.40;;;;;;5117271;27;45321;-77
2023/08/26 12:27:47;;;;;;;3.60;1.55;;;25.50;57.40;;;;;;5115303;27;46666;-77
2023/08/26 12:30:15;;;;;;;5.68;1.75;;;25.50;57.70;;;;;;5123065;27;46433;-74
2023/08/26 12:32:42;;;;;;;1.40;1.30;;;25.50;57.70;;;;;;5119832;27;45492;-76
2023/08/26 12:35:09;;;;;;;2.28;1.52;;;25.50;58.30;;;;;;5125472;27;45420;-76
2023/08/26 12:37:36;;;;;;;2.42;1.42;;;25.50;58.00;;;;;;5122158;27;45250;-75
2023/08/26 12:40:04;;;;;;;3.85;1.60;;;25.50;58.10;;;;;;5128615;27;45190;-76
2023/08/26 12:42:32;;;;;;;2.13;1.25;;;25.50;57.80;;;;;;5125078;27;45354;-75
2023/08/26 12:44:59;;;;;;;3.08;1.38;;;25.50;57.70;;;;;;5129724;27;45279;-75
2023/08/26 12:47:27;;;;;;;2.13;1.38;;;25.50;57.70;;;;;;5117608;27;46978;-76
2023/08/26 12:49:55;;;;;;;1.48;1.30;;;25.50;57.50;;;;;;5125063;27;45212;-76